Time;durP1;ratioP1;P1;durP2;ratioP2;P2;SDS_P1;SDS_P2;PMS_P1;PMS_P2;Temp;Humidity;BMP_temperature;BMP_pressure;BME280_temperature;BME280_humidity;BME280_pressure;Samples;Min_cycle;Max_cycle;Signal;HPM_P1;HPM_P2
2022/07/17 00:01:14;;;;;;;14.90;2.30;;;;;;;56.65;6.67;100356.19;5046147;28;20025;-63
2022/07/17 00:03:40;;;;;;;24.15;2.95;;;;;;;55.46;7.18;100352.13;5053489;28;20124;-63
2022/07/17 00:06:07;;;;;;;13.40;2.30;;;;;;;54.33;8.40;100357.63;5054062;28;20021;-63
2022/07/17 00:08:34;;;;;;;8.65;2.20;;;;;;;54.15;7.67;100353.72;5037354;28;20056;-63
2022/07/17 00:11:01;;;;;;;11.73;2.30;;;;;;;53.76;8.63;100349.19;5048759;28;20502;-63
2022/07/17 00:13:27;;;;;;;12.32;2.50;;;;;;;51.52;9.51;100346.47;5053691;28;20045;-63
2022/07/17 00:15:54;;;;;;;18.00;2.40;;;;;;;51.68;9.56;100348.19;5039693;28;20396;-63
2022/07/17 00:18:21;;;;;;;14.55;2.30;;;;;;;51.89;9.99;100342.47;5050967;28;20033;-63
2022/07/17 00:20:48;;;;;;;10.43;2.55;;;;;;;53.18;9.29;100324.53;5049042;28;20036;-63
2022/07/17 00:23:14;;;;;;;10.05;2.15;;;;;;;51.58;10.11;100335.53;5042034;28;20075;-63
2022/07/17 00:25:41;;;;;;;15.05;2.72;;;;;;;51.57;10.37;100328.19;5041387;28;20038;-63
2022/07/17 00:28:08;;;;;;;11.95;2.60;;;;;;;51.81;9.62;100323.44;5049272;28;20399;-63
2022/07/17 00:30:35;;;;;;;9.43;2.40;;;;;;;51.38;9.99;100321.00;5036840;28;20075;-62
2022/07/17 00:33:01;;;;;;;12.57;3.03;;;;;;;50.47;10.86;100319.09;5052991;28;20027;-63
2022/07/17 00:35:28;;;;;;;13.77;2.75;;;;;;;51.03;10.52;100320.94;5053250;28;20064;-63
2022/07/17 00:37:55;;;;;;;8.70;2.38;;;;;;;50.79;10.62;100318.22;5039171;28;20025;-63
2022/07/17 00:40:24;;;;;;;15.73;2.78;;;;;;;50.28;11.15;100315.50;5048914;28;20127;-63
2022/07/17 00:42:52;;;;;;;13.65;2.90;;;;;;;49.55;12.05;100327.38;5038282;28;20044;-63
2022/07/17 00:45:20;;;;;;;13.00;2.75;;;;;;;50.18;12.09;100308.56;5044206;28;20072;-62
2022/07/17 00:47:57;;;;;;;12.00;2.83;;;;;;;49.43;12.10;100314.44;5045697;28;20458;-63
2022/07/17 00:50:36;;;;;;;9.25;2.70;;;;;;;49.19;12.11;100309.47;5035437;28;20408;-63
2022/07/17 00:53:04;;;;;;;17.20;2.58;;;;;;;49.34;11.66;100309.03;5053035;28;20457;-63
2022/07/17 00:55:31;;;;;;;15.73;2.83;;;;;;;49.63;12.02;100308.09;5042211;28;20130;-62
2022/07/17 00:58:02;;;;;;;9.82;2.22;;;;;;;49.53;12.28;100309.81;5047296;28;20040;-65
2022/07/17 01:00:29;;;;;;;13.15;2.85;;;;;;;48.74;12.99;100304.22;5036664;28;20037;-62
2022/07/17 01:02:56;;;;;;;13.35;2.67;;;;;;;48.93;12.59;100304.28;5052286;28;20021;-62
2022/07/17 01:05:24;;;;;;;14.68;2.97;;;;;;;48.34;13.35;100311.72;5052769;28;20438;-64
2022/07/17 01:07:52;;;;;;;31.10;3.08;;;;;;;48.93;13.13;100310.81;5039614;28;20499;-65
2022/07/17 01:10:19;;;;;;;12.90;2.70;;;;;;;48.42;12.92;100313.44;5049233;28;20037;-64
2022/07/17 01:12:47;;;;;;;13.60;2.40;;;;;;;47.86;13.15;100318.91;5037210;28;20506;-65
2022/07/17 01:15:15;;;;;;;10.43;2.80;;;;;;;47.98;13.30;100308.84;5043435;28;20029;-64
2022/07/17 01:17:43;;;;;;;13.52;2.75;;;;;;;47.74;13.42;100308.72;5044537;28;20028;-64
2022/07/17 01:20:11;;;;;;;10.15;2.33;;;;;;;48.00;13.37;100317.75;5036910;28;20065;-64
2022/07/17 01:22:49;;;;;;;8.35;2.33;;;;;;;47.49;14.15;100308.63;5049035;28;20036;-63
2022/07/17 01:25:22;;;;;;;9.13;2.50;;;;;;;47.13;14.32;100319.28;5041264;28;20043;-63
2022/07/17 01:27:49;;;;;;;13.73;2.70;;;;;;;47.52;13.62;100321.19;5039590;28;20038;-63
2022/07/17 01:30:16;;;;;;;9.95;2.33;;;;;;;47.55;13.55;100315.13;5048988;28;20070;-63
2022/07/17 01:32:44;;;;;;;10.38;2.38;;;;;;;47.44;13.53;100312.31;5044525;28;20033;-63
2022/07/17 01:35:12;;;;;;;23.88;3.13;;;;;;;47.43;13.29;100307.88;5052488;28;20061;-65
2022/07/17 01:37:40;;;;;;;14.80;2.55;;;;;;;47.39;14.12;100313.09;5040352;28;20052;-63
2022/07/17 01:40:09;;;;;;;10.15;2.20;;;;;;;46.86;14.30;100326.69;5047777;28;20047;-64
2022/07/17 01:42:36;;;;;;;15.40;2.53;;;;;;;47.06;14.26;100328.44;5035835;28;20395;-64
2022/07/17 01:45:03;;;;;;;14.23;2.45;;;;;;;46.24;14.94;100328.81;5045754;28;20065;-63
2022/07/17 01:47:30;;;;;;;9.55;2.20;;;;;;;45.72;15.03;100335.00;5042605;28;20115;-63
2022/07/17 01:49:57;;;;;;;11.48;2.10;;;;;;;45.33;15.67;100337.72;5039912;28;20037;-63
2022/07/17 01:52:26;;;;;;;8.77;1.95;;;;;;;45.39;16.00;100335.66;5054316;28;20030;-64
2022/07/17 01:54:53;;;;;;;15.15;2.53;;;;;;;45.00;16.41;100346.16;5044342;28;20021;-63
2022/07/17 01:57:21;;;;;;;14.30;2.53;;;;;;;44.49;16.35;100339.28;5049698;28;20041;-63
2022/07/17 01:59:48;;;;;;;15.05;2.50;;;;;;;44.16;16.61;100340.56;5051757;28;20021;-63
2022/07/17 02:02:15;;;;;;;8.25;2.35;;;;;;;44.10;16.75;100336.09;5049528;28;20029;-63
2022/07/17 02:04:42;;;;;;;12.38;3.08;;;;;;;44.15;16.56;100338.22;5058885;28;20105;-64
2022/07/17 02:07:09;;;;;;;10.05;2.35;;;;;;;44.28;16.27;100335.72;5051217;28;20037;-64
2022/07/17 02:09:37;;;;;;;13.38;3.13;;;;;;;43.98;16.38;100335.94;5049953;28;20017;-64
2022/07/17 02:12:04;;;;;;;8.95;2.90;;;;;;;44.05;16.40;100333.94;5043732;28;20036;-62
2022/07/17 02:14:30;;;;;;;10.25;2.45;;;;;;;43.75;16.86;100336.22;5055302;28;20052;-63
2022/07/17 02:16:57;;;;;;;18.98;3.25;;;;;;;43.55;17.08;100332.09;5044591;28;20127;-62
2022/07/17 02:19:24;;;;;;;16.58;2.78;;;;;;;43.38;16.75;100342.56;5048791;28;20052;-62
2022/07/17 02:21:51;;;;;;;16.02;3.38;;;;;;;43.02;17.80;100335.31;5052046;28;20037;-64
2022/07/17 02:24:17;;;;;;;18.02;2.78;;;;;;;42.86;17.99;100350.91;5042100;28;20060;-62
2022/07/17 02:26:44;;;;;;;9.43;1.75;;;;;;;42.42;19.52;100356.72;5054430;28;20041;-64
2022/07/17 02:29:11;;;;;;;16.55;2.05;;;;;;;42.09;20.64;100363.41;5046542;28;20106;-62
2022/07/17 02:31:38;;;;;;;13.77;1.98;;;;;;;41.92;21.49;100359.44;5048363;28;20033;-62
2022/07/17 02:34:04;;;;;;;11.65;1.75;;;;;;;41.68;21.91;100365.22;5058535;28;20033;-63
2022/07/17 02:36:31;;;;;;;11.75;2.20;;;;;;;41.51;22.82;100364.84;5056030;28;20033;-63
2022/07/17 02:38:59;;;;;;;15.95;2.83;;;;;;;41.37;22.92;100364.81;5044368;28;20544;-62
2022/07/17 02:41:26;;;;;;;9.95;2.53;;;;;;;41.26;22.51;100373.91;5048438;28;20103;-62
2022/07/17 02:43:52;;;;;;;15.05;2.80;;;;;;;41.19;23.35;100366.47;5052011;28;20028;-64
2022/07/17 02:46:22;;;;;;;10.00;2.22;;;;;;;40.98;23.63;100376.91;5042148;28;20140;-64
2022/07/17 02:48:48;;;;;;;11.85;2.00;;;;;;;40.75;23.97;100380.47;5053760;28;20021;-64
2022/07/17 02:51:17;;;;;;;12.50;2.40;;;;;;;40.61;24.17;100384.03;5046914;28;20577;-64
2022/07/17 02:53:44;;;;;;;14.65;2.70;;;;;;;40.50;24.77;100378.03;5048919;28;20027;-63
2022/07/17 02:56:11;;;;;;;18.48;2.97;;;;;;;40.27;25.12;100388.84;5056318;28;20530;-63
2022/07/17 02:58:38;;;;;;;13.57;2.60;;;;;;;40.14;25.55;100397.56;5054527;28;20021;-64
2022/07/17 03:01:05;;;;;;;17.55;3.47;;;;;;;40.00;25.52;100391.72;5043430;28;20044;-63
2022/07/17 03:03:32;;;;;;;13.30;3.28;;;;;;;39.92;25.63;100396.16;5054239;28;20483;-64
2022/07/17 03:05:59;;;;;;;13.05;2.72;;;;;;;39.77;26.07;100391.09;5055267;28;20471;-62
2022/07/17 03:08:25;;;;;;;14.48;3.10;;;;;;;39.60;26.27;100398.34;5038445;28;20036;-63
2022/07/17 03:10:52;;;;;;;13.95;2.97;;;;;;;39.45;26.90;100408.75;5049861;28;20068;-64
2022/07/17 03:13:18;;;;;;;14.45;3.42;;;;;;;39.32;28.07;100411.75;5042734;28;20025;-64
2022/07/17 03:15:45;;;;;;;18.42;3.92;;;;;;;39.21;28.79;100422.75;5041111;28;20373;-64
2022/07/17 03:18:12;;;;;;;18.13;7.70;;;;;;;39.20;28.50;100427.66;5051167;28;20116;-63
2022/07/17 03:20:38;;;;;;;24.45;8.57;;;;;;;39.04;29.22;100430.72;5038246;28;20028;-64
2022/07/17 03:23:05;;;;;;;27.60;5.22;;;;;;;38.85;30.59;100423.41;5047692;28;20369;-64
2022/07/17 03:25:32;;;;;;;25.23;5.97;;;;;;;38.76;30.95;100434.69;5045358;28;20043;-64
2022/07/17 03:27:58;;;;;;;26.73;4.68;;;;;;;38.51;31.40;100436.44;5040375;28;20041;-64
2022/07/17 03:30:25;;;;;;;27.92;5.25;;;;;;;38.46;31.63;100442.75;5050713;28;20037;-64
2022/07/17 03:32:53;;;;;;;27.00;3.83;;;;;;;38.50;32.47;100449.06;5047780;28;20039;-64
2022/07/17 03:35:20;;;;;;;27.50;4.53;;;;;;;38.46;32.80;100456.94;5054443;28;20025;-64
2022/07/17 03:37:46;;;;;;;27.77;5.38;;;;;;;38.21;33.14;100454.22;5041756;28;20124;-64
2022/07/17 03:40:13;;;;;;;27.08;4.85;;;;;;;38.13;33.72;100458.56;5050605;28;20049;-64
2022/07/17 03:42:40;;;;;;;33.60;3.88;;;;;;;38.04;34.17;100462.91;5033589;28;20064;-63
2022/07/17 03:45:07;;;;;;;19.60;3.40;;;;;;;38.00;35.40;100467.91;5041793;28;20430;-63
2022/07/17 03:47:34;;;;;;;28.58;4.30;;;;;;;37.84;35.89;100470.91;5054198;28;20040;-63
2022/07/17 03:50:01;;;;;;;25.92;4.13;;;;;;;37.78;36.42;100486.94;5039631;28;20041;-64
2022/07/17 03:52:28;;;;;;;36.75;4.30;;;;;;;37.66;36.93;100482.84;5050827;28;20040;-64
2022/07/17 03:54:54;;;;;;;32.53;4.35;;;;;;;37.58;36.94;100492.06;5039758;28;20025;-62
2022/07/17 03:57:21;;;;;;;46.30;5.45;;;;;;;37.45;37.36;100501.38;5044543;28;20496;-62
2022/07/17 03:59:48;;;;;;;38.45;5.60;;;;;;;37.29;37.19;100518.50;5047084;28;20682;-62
2022/07/17 04:02:14;;;;;;;30.00;4.22;;;;;;;37.28;37.86;100521.81;5043972;28;20399;-62
2022/07/17 04:04:41;;;;;;;27.85;3.67;;;;;;;37.24;37.95;100530.41;5054113;28;20120;-64
2022/07/17 04:07:26;;;;;;;37.28;3.78;;;;;;;37.20;38.35;100535.38;5046577;28;20450;-62
2022/07/17 04:09:58;;;;;;;30.95;4.10;;;;;;;37.09;38.35;100551.91;5047690;28;20120;-64
2022/07/17 04:12:25;;;;;;;28.25;4.25;;;;;;;37.05;38.30;100565.41;5052089;28;20033;-63
2022/07/17 04:14:52;;;;;;;35.55;4.22;;;;;;;37.05;37.79;100565.41;5034300;28;20030;-62
2022/07/17 04:17:19;;;;;;;23.15;3.05;;;;;;;36.92;37.54;100576.72;5042751;28;20033;-62
2022/07/17 04:19:45;;;;;;;26.60;3.30;;;;;;;36.80;37.79;100585.97;5053732;28;20111;-62
2022/07/17 04:22:12;;;;;;;36.13;4.72;;;;;;;36.64;37.65;100589.63;5037610;28;20037;-63
2022/07/17 04:24:39;;;;;;;173.35;10.15;;;;;;;36.53;37.76;100584.25;5039397;28;20458;-62
2022/07/17 04:27:07;;;;;;;30.17;3.45;;;;;;;36.42;38.31;100589.41;5047492;28;20503;-63
2022/07/17 04:29:34;;;;;;;23.63;3.75;;;;;;;36.35;39.57;100598.09;5051387;28;20036;-64
2022/07/17 04:32:01;;;;;;;23.10;3.78;;;;;;;36.25;39.07;100610.47;5051039;28;20033;-64
2022/07/17 04:34:28;;;;;;;23.98;3.60;;;;;;;36.06;39.04;100603.66;5051798;28;20365;-65
2022/07/17 04:36:54;;;;;;;21.80;3.60;;;;;;;36.08;39.28;100603.22;5052166;28;20037;-64
2022/07/17 04:39:23;;;;;;;13.20;3.10;;;;;;;35.91;38.93;100596.78;5049593;28;20065;-65
2022/07/17 04:41:50;;;;;;;20.90;2.97;;;;;;;35.88;39.98;100606.94;5053288;28;20032;-62
2022/07/17 04:44:17;;;;;;;28.17;3.65;;;;;;;35.75;40.44;100611.69;5036206;28;20029;-65
2022/07/17 04:46:44;;;;;;;14.43;2.85;;;;;;;35.64;40.83;100608.31;5048970;28;20132;-64
2022/07/17 04:49:11;;;;;;;15.70;2.90;;;;;;;35.53;40.69;100608.56;5040604;28;20635;-65
2022/07/17 04:51:37;;;;;;;18.75;2.83;;;;;;;35.50;41.44;100594.50;5052820;28;20021;-63
2022/07/17 04:54:04;;;;;;;11.63;2.55;;;;;;;35.42;40.82;100606.00;5037737;28;20026;-63
2022/07/17 04:56:31;;;;;;;19.05;2.80;;;;;;;35.33;41.51;100599.31;5050807;28;20037;-64
2022/07/17 04:58:57;;;;;;;24.98;3.13;;;;;;;35.32;40.28;100595.69;5052538;28;20380;-64
2022/07/17 05:01:24;;;;;;;21.23;3.10;;;;;;;35.26;41.48;100602.28;5051148;28;20118;-64
2022/07/17 05:03:51;;;;;;;18.67;2.92;;;;;;;35.24;41.20;100599.91;5052704;28;20499;-64
2022/07/17 05:06:18;;;;;;;18.83;3.35;;;;;;;35.06;40.95;100591.81;5050934;28;20518;-63
2022/07/17 05:08:45;;;;;;;17.30;3.10;;;;;;;35.09;41.54;100596.59;5051507;28;20028;-64
2022/07/17 05:11:11;;;;;;;13.98;2.72;;;;;;;35.11;40.76;100588.47;5052344;28;20113;-65
2022/07/17 05:13:38;;;;;;;22.33;3.00;;;;;;;35.07;41.71;100573.63;5032983;28;20516;-62
2022/07/17 05:16:05;;;;;;;14.73;3.15;;;;;;;35.00;41.38;100570.16;5051238;28;20365;-64
2022/07/17 05:18:31;;;;;;;16.48;3.03;;;;;;;35.00;41.91;100564.50;5050138;28;20463;-62
2022/07/17 05:20:58;;;;;;;22.67;3.42;;;;;;;34.92;41.78;100563.88;5037506;28;20108;-63
2022/07/17 05:23:25;;;;;;;17.67;2.97;;;;;;;34.94;41.64;100561.41;5044151;28;20120;-65
2022/07/17 05:25:52;;;;;;;17.35;3.42;;;;;;;34.86;41.93;100557.16;5051739;28;20064;-63
2022/07/17 05:28:18;;;;;;;18.27;3.08;;;;;;;34.91;41.41;100561.47;5040316;28;20020;-63
2022/07/17 05:30:45;;;;;;;14.20;2.97;;;;;;;34.92;41.47;100568.72;5051114;28;20111;-64
2022/07/17 05:33:12;;;;;;;13.07;2.58;;;;;;;34.83;41.77;100563.63;5051016;28;20021;-64
2022/07/17 05:35:41;;;;;;;11.32;2.42;;;;;;;34.68;42.32;100576.44;5052249;28;20068;-63
2022/07/17 05:38:09;;;;;;;10.02;2.97;;;;;;;34.60;42.53;100577.81;5036181;28;20034;-65
2022/07/17 05:40:36;;;;;;;12.35;2.80;;;;;;;34.48;42.36;100582.09;5051877;28;20103;-65
2022/07/17 05:43:03;;;;;;;14.50;2.55;;;;;;;34.37;43.15;100589.94;5051735;28;20040;-64
2022/07/17 05:45:30;;;;;;;33.50;3.33;;;;;;;34.35;42.85;100598.84;5050407;28;20029;-64
2022/07/17 05:47:56;;;;;;;13.27;2.80;;;;;;;34.43;41.68;100594.66;5033860;28;20083;-65
2022/07/17 05:50:23;;;;;;;11.25;2.60;;;;;;;34.48;41.01;100607.47;5050903;28;20116;-65
2022/07/17 05:52:50;;;;;;;14.98;2.70;;;;;;;34.42;41.25;100590.22;5037267;28;20494;-65
2022/07/17 05:55:16;;;;;;;17.38;2.70;;;;;;;34.55;41.00;100601.69;5043708;28;20026;-64
2022/07/17 05:57:43;;;;;;;9.55;2.40;;;;;;;34.52;40.10;100586.44;5044030;28;20120;-64
2022/07/17 06:00:10;;;;;;;9.00;2.40;;;;;;;34.52;40.01;100605.38;5037290;28;20124;-62
2022/07/17 06:02:41;;;;;;;14.50;2.25;;;;;;;34.63;39.48;100599.53;5043730;28;20029;-64
2022/07/17 06:05:08;;;;;;;8.65;2.30;;;;;;;34.72;38.99;100599.75;5051855;28;20036;-62
2022/07/17 06:07:35;;;;;;;13.80;2.10;;;;;;;34.65;39.09;100611.16;5040838;28;20460;-63
2022/07/17 06:10:02;;;;;;;13.25;2.33;;;;;;;34.66;38.68;100595.84;5047017;28;20083;-63
2022/07/17 06:12:30;;;;;;;11.70;3.00;;;;;;;34.72;38.63;100608.22;5045443;28;20023;-63
2022/07/17 06:14:56;;;;;;;11.63;3.72;;;;;;;34.57;39.30;100596.41;5051369;28;20037;-63
2022/07/17 06:17:23;;;;;;;14.77;4.22;;;;;;;34.59;38.83;100618.56;5051060;28;20036;-65
2022/07/17 06:19:51;;;;;;;13.27;3.65;;;;;;;34.61;39.04;100610.44;5050860;28;20033;-65
2022/07/17 06:22:21;;;;;;;16.88;3.70;;;;;;;34.63;38.12;100619.28;5051218;28;20039;-63
2022/07/17 06:24:48;;;;;;;20.05;3.70;;;;;;;34.62;37.88;100606.41;5036461;28;20483;-64
2022/07/17 06:27:15;;;;;;;20.65;4.70;;;;;;;34.69;37.90;100624.00;5049219;28;20036;-63
2022/07/17 06:29:41;;;;;;;13.20;4.07;;;;;;;34.48;38.47;100619.56;5050574;28;20041;-63
2022/07/17 06:32:08;;;;;;;28.33;6.50;;;;;;;34.58;38.39;100622.59;5051312;28;20051;-65
2022/07/17 06:34:35;;;;;;;24.73;7.00;;;;;;;34.56;38.27;100625.06;5051899;28;20045;-65
2022/07/17 06:37:01;;;;;;;29.67;7.18;;;;;;;34.49;37.97;100626.81;5050023;28;20060;-65
2022/07/17 06:39:28;;;;;;;23.40;5.70;;;;;;;34.53;37.81;100638.03;5036661;28;20033;-65
2022/07/17 06:41:55;;;;;;;25.15;4.90;;;;;;;34.47;37.70;100632.09;5040503;28;20391;-63
2022/07/17 06:44:21;;;;;;;21.60;4.30;;;;;;;34.40;38.80;100629.38;5046226;28;20057;-63
2022/07/17 06:46:49;;;;;;;29.15;4.95;;;;;;;34.38;38.42;100631.03;5050357;28;20064;-64
2022/07/17 06:49:16;;;;;;;10.65;3.42;;;;;;;34.36;37.74;100634.28;5049572;28;20099;-64
2022/07/17 06:51:45;;;;;;;17.35;3.10;;;;;;;34.32;38.70;100608.13;5048334;28;20036;-63
2022/07/17 06:54:12;;;;;;;15.00;3.83;;;;;;;34.22;39.29;100604.25;5051675;28;20132;-64
2022/07/17 06:56:40;;;;;;;20.42;3.35;;;;;;;34.16;39.17;100622.94;5044820;28;20115;-64
2022/07/17 06:59:09;;;;;;;12.15;3.22;;;;;;;34.16;39.34;100608.03;5053833;28;20033;-64
2022/07/17 07:01:38;;;;;;;16.67;3.10;;;;;;;34.15;39.06;100615.69;5054579;28;20040;-64
2022/07/17 07:04:05;;;;;;;10.63;2.40;;;;;;;34.16;38.64;100622.94;5052542;28;20457;-63
2022/07/17 07:06:32;;;;;;;8.23;2.42;;;;;;;34.01;39.96;100590.53;5054371;28;20021;-63
2022/07/17 07:08:59;;;;;;;23.48;3.30;;;;;;;33.92;40.33;100605.16;5054194;28;20033;-64
2022/07/17 07:11:25;;;;;;;13.77;2.33;;;;;;;34.01;40.16;100606.66;5050786;28;20025;-64
2022/07/17 07:13:52;;;;;;;14.85;2.40;;;;;;;33.80;40.99;100580.38;5042641;28;20045;-63
2022/07/17 07:16:20;;;;;;;15.40;2.25;;;;;;;33.77;41.17;100583.25;5053850;28;20364;-63
2022/07/17 07:18:47;;;;;;;9.63;2.40;;;;;;;33.79;41.27;100595.72;5048935;28;20068;-63
2022/07/17 07:21:14;;;;;;;9.20;2.08;;;;;;;33.71;41.73;100582.94;5040396;28;20030;-63
2022/07/17 07:23:41;;;;;;;9.50;2.20;;;;;;;33.59;42.28;100581.53;5051417;28;20029;-63
2022/07/17 07:26:07;;;;;;;12.73;2.05;;;;;;;33.63;41.91;100601.19;5054473;28;20096;-63
2022/07/17 07:28:34;;;;;;;11.82;2.28;;;;;;;33.65;41.99;100579.81;5054284;28;20047;-63
2022/07/17 07:31:01;;;;;;;8.68;1.80;;;;;;;33.59;42.36;100572.28;5054564;28;20025;-64
2022/07/17 07:33:27;;;;;;;7.00;2.00;;;;;;;33.62;42.46;100583.47;5053097;28;20406;-64
2022/07/17 07:35:54;;;;;;;17.35;2.40;;;;;;;33.64;42.83;100574.59;5051590;28;20076;-64
2022/07/17 07:38:21;;;;;;;10.10;2.38;;;;;;;33.61;42.63;100567.00;5049047;28;20540;-64
2022/07/17 07:40:47;;;;;;;10.75;1.95;;;;;;;33.62;42.32;100568.59;5053374;28;20037;-64
2022/07/17 07:43:14;;;;;;;7.88;1.98;;;;;;;33.69;42.11;100574.09;5054528;28;20484;-64
2022/07/17 07:45:43;;;;;;;7.40;2.13;;;;;;;33.68;42.58;100568.91;5050864;28;20048;-64
2022/07/17 07:48:10;;;;;;;8.90;1.88;;;;;;;33.61;42.08;100556.53;5048716;28;20029;-63
2022/07/17 07:50:37;;;;;;;8.93;2.17;;;;;;;33.68;42.29;100557.63;5048358;28;20029;-64
2022/07/17 07:53:03;;;;;;;8.05;2.03;;;;;;;33.66;42.51;100558.06;5048888;28;20044;-64
2022/07/17 07:55:30;;;;;;;8.30;2.22;;;;;;;33.71;41.86;100551.91;5048563;28;20043;-64
2022/07/17 07:58:05;;;;;;;9.63;2.42;;;;;;;33.77;42.13;100547.41;5045363;28;20084;-64
2022/07/17 08:00:32;;;;;;;9.93;2.40;;;;;;;33.81;42.45;100539.69;5052528;28;20547;-64
2022/07/17 08:02:59;;;;;;;7.93;2.10;;;;;;;33.85;41.91;100531.19;5052990;28;20033;-64
2022/07/17 08:05:25;;;;;;;7.90;2.75;;;;;;;33.80;41.93;100528.84;5053620;28;20480;-64
2022/07/17 08:07:52;;;;;;;7.75;1.95;;;;;;;33.82;41.94;100532.81;5052555;28;20025;-64
2022/07/17 08:10:20;;;;;;;6.03;2.42;;;;;;;33.85;42.10;100531.19;5050069;28;20399;-64
2022/07/17 08:12:46;;;;;;;12.25;2.38;;;;;;;33.82;41.87;100532.81;5039522;28;20029;-63
2022/07/17 08:15:19;;;;;;;10.65;2.22;;;;;;;33.84;41.99;100540.84;5047425;28;20553;-63
2022/07/17 08:17:47;;;;;;;7.05;2.03;;;;;;;33.82;42.16;100532.81;5053093;28;20200;-62
2022/07/17 08:20:14;;;;;;;7.60;2.00;;;;;;;33.85;41.28;100537.63;5050862;28;20025;-63
2022/07/17 08:22:45;;;;;;;10.80;2.10;;;;;;;33.88;41.45;100541.59;5025727;28;20028;-63
2022/07/17 08:25:12;;;;;;;7.28;2.20;;;;;;;33.86;41.29;100527.94;5047825;28;20087;-63
2022/07/17 08:27:41;;;;;;;6.90;1.90;;;;;;;33.83;41.31;100523.13;5049856;28;20104;-63
2022/07/17 08:30:11;;;;;;;7.72;2.15;;;;;;;33.76;41.41;100511.19;5053472;28;20021;-63
2022/07/17 08:32:39;;;;;;;6.70;2.60;;;;;;;33.81;41.49;100521.97;5050625;28;20063;-63
2022/07/17 08:35:07;;;;;;;9.43;2.20;;;;;;;33.78;41.73;100520.81;5053249;28;20467;-63
2022/07/17 08:37:51;;;;;;;10.20;1.92;;;;;;;33.80;41.43;100506.28;5051664;28;20041;-62
2022/07/17 08:40:21;;;;;;;7.28;2.78;;;;;;;33.74;42.07;100503.13;5052379;28;20495;-62
2022/07/17 08:42:47;;;;;;;6.50;2.20;;;;;;;33.69;41.48;100500.03;5053010;28;20037;-63
2022/07/17 08:45:14;;;;;;;10.32;2.70;;;;;;;33.79;41.07;100491.38;5053057;28;20017;-63
2022/07/17 08:47:41;;;;;;;11.93;2.58;;;;;;;33.87;40.49;100481.59;5048178;28;20037;-63
2022/07/17 08:50:12;;;;;;;9.63;2.65;;;;;;;33.94;40.76;100489.94;5052857;28;20471;-63
2022/07/17 08:52:41;;;;;;;14.73;4.45;;;;;;;33.96;40.62;100492.34;5052704;28;20372;-65
2022/07/17 08:55:12;;;;;;;14.52;4.22;;;;;;;33.99;40.67;100499.13;5052760;28;20103;-63
2022/07/17 08:57:40;;;;;;;11.48;3.40;;;;;;;33.96;40.80;100497.19;5052475;28;20044;-63
2022/07/17 09:00:10;;;;;;;13.07;3.20;;;;;;;33.99;40.98;100499.13;5051976;28;20083;-63
2022/07/17 09:02:39;;;;;;;18.73;3.20;;;;;;;33.99;40.29;100501.94;5051153;28;20075;-63
2022/07/17 09:05:06;;;;;;;20.50;3.60;;;;;;;33.91;40.94;100487.97;5052596;28;20024;-62
2022/07/17 09:07:34;;;;;;;20.73;3.70;;;;;;;33.98;40.34;100497.53;5052269;28;20040;-62
2022/07/17 09:10:00;;;;;;;22.58;3.72;;;;;;;33.91;40.42;100493.59;5049883;28;20052;-62
2022/07/17 09:12:29;;;;;;;15.73;3.00;;;;;;;33.86;40.88;100499.75;5052441;28;20029;-62
2022/07/17 09:14:56;;;;;;;9.77;2.92;;;;;;;33.80;41.27;100500.66;5051397;28;20383;-63
2022/07/17 09:17:26;;;;;;;8.50;2.42;;;;;;;33.76;41.25;100505.56;5042944;28;20099;-62
2022/07/17 09:19:53;;;;;;;11.77;2.80;;;;;;;33.71;41.75;100512.47;5046404;28;20048;-62
2022/07/17 09:22:24;;;;;;;11.50;2.53;;;;;;;33.71;41.45;100518.09;5035984;28;20088;-62
2022/07/17 09:24:53;;;;;;;23.80;3.10;;;;;;;33.73;41.79;100515.63;5047563;28;20498;-62
2022/07/17 09:27:25;;;;;;;16.92;3.15;;;;;;;33.71;41.55;100514.47;5041623;28;20025;-62
2022/07/17 09:30:07;;;;;;;12.15;2.88;;;;;;;33.67;41.37;100514.53;5038032;28;20067;-62
2022/07/17 09:32:36;;;;;;;15.38;2.97;;;;;;;33.66;41.79;100510.13;5050473;28;20542;-62
2022/07/17 09:35:06;;;;;;;14.23;3.15;;;;;;;33.77;41.36;100512.78;5052516;28;20055;-63
2022/07/17 09:37:34;;;;;;;14.95;4.07;;;;;;;33.81;41.42;100508.66;5041346;28;20041;-62
2022/07/17 09:40:01;;;;;;;11.75;2.83;;;;;;;33.84;41.02;100518.28;5047052;28;20048;-63
2022/07/17 09:42:32;;;;;;;9.43;2.63;;;;;;;33.80;40.56;100524.00;5035832;28;20037;-62
2022/07/17 09:45:03;;;;;;;12.15;2.92;;;;;;;33.83;40.41;100523.13;5046408;28;20044;-62
2022/07/17 09:47:32;;;;;;;16.70;3.33;;;;;;;33.80;40.35;100514.75;5042726;28;20483;-63
2022/07/17 09:50:01;;;;;;;10.07;2.67;;;;;;;33.85;40.53;100528.38;5038007;28;20028;-62
2022/07/17 09:52:30;;;;;;;15.57;3.08;;;;;;;33.85;41.32;100537.63;5048862;28;20061;-63
2022/07/17 09:54:58;;;;;;;9.93;2.60;;;;;;;33.83;41.34;100534.41;5038255;28;20029;-63
2022/07/17 09:57:27;;;;;;;11.63;2.50;;;;;;;33.84;41.03;100535.22;5041027;28;20447;-63
2022/07/17 09:59:55;;;;;;;9.05;2.35;;;;;;;33.82;41.48;100532.03;5044911;28;20032;-63
2022/07/17 10:02:23;;;;;;;15.63;3.25;;;;;;;33.98;40.90;100532.19;5043174;28;20036;-62
2022/07/17 10:04:49;;;;;;;13.23;3.00;;;;;;;34.03;40.14;100520.41;5052322;28;20023;-62
2022/07/17 10:07:17;;;;;;;13.60;2.58;;;;;;;34.16;40.21;100517.75;5043645;28;20509;-62
2022/07/17 10:09:44;;;;;;;13.60;2.78;;;;;;;34.32;39.36;100512.22;5044276;28;20029;-62
2022/07/17 10:12:11;;;;;;;11.35;2.55;;;;;;;34.32;39.49;100511.41;5038931;28;20065;-62
2022/07/17 10:14:41;;;;;;;10.50;2.70;;;;;;;34.37;39.03;100520.19;5052647;28;20028;-62
2022/07/17 10:17:13;;;;;;;11.20;2.72;;;;;;;34.36;39.68;100529.88;5043580;28;20435;-63
2022/07/17 10:19:56;;;;;;;14.18;2.80;;;;;;;34.19;39.94;100533.81;5044200;28;20399;-62
2022/07/17 10:22:24;;;;;;;14.82;2.92;;;;;;;34.05;40.19;100534.06;5052462;28;20041;-62
2022/07/17 10:24:54;;;;;;;12.43;2.75;;;;;;;33.94;40.36;100546.34;5041368;28;20379;-62
2022/07/17 10:27:31;;;;;;;15.45;3.10;;;;;;;33.98;39.86;100551.91;5046814;28;20044;-63
2022/07/17 10:30:06;;;;;;;26.20;4.20;;;;;;;33.91;40.80;100541.53;5050460;28;20059;-63
2022/07/17 10:32:35;;;;;;;22.30;4.15;;;;;;;33.79;42.28;100536.50;5045168;28;20130;-62
2022/07/17 10:35:04;;;;;;;12.77;3.63;;;;;;;33.68;43.14;100544.31;5056052;28;20029;-65
2022/07/17 10:37:37;;;;;;;18.27;4.00;;;;;;;33.85;43.56;100556.56;5044915;28;20095;-64
2022/07/17 10:40:22;;;;;;;18.27;3.83;;;;;;;33.69;44.77;100554.38;5049409;28;20045;-64
2022/07/17 10:42:54;;;;;;;12.82;3.28;;;;;;;33.50;44.60;100521.25;5038588;28;20118;-63
2022/07/17 10:45:23;;;;;;;12.00;3.13;;;;;;;33.41;44.48;100530.28;5053463;28;20063;-63
2022/07/17 10:47:54;;;;;;;11.98;3.45;;;;;;;33.50;44.74;100541.00;5040312;28;20071;-62
2022/07/17 10:50:24;;;;;;;8.90;3.70;;;;;;;33.33;45.84;100529.56;5050236;28;20037;-64
2022/07/17 10:53:01;;;;;;;13.65;3.42;;;;;;;33.24;45.81;100537.72;5038700;28;20032;-63
2022/07/17 10:55:28;;;;;;;14.10;3.80;;;;;;;33.14;46.23;100541.47;5043395;28;20033;-64
2022/07/17 10:57:59;;;;;;;11.30;3.42;;;;;;;33.06;46.76;100542.81;5049370;28;20182;-64
2022/07/17 11:00:26;;;;;;;9.23;3.00;;;;;;;33.01;46.91;100543.28;5038924;28;20561;-64
2022/07/17 11:02:53;;;;;;;12.02;3.33;;;;;;;32.90;47.33;100553.88;5054844;28;20106;-64
2022/07/17 11:05:21;;;;;;;14.55;2.83;;;;;;;32.76;47.63;100557.66;5055421;28;20084;-64
2022/07/17 11:07:49;;;;;;;11.65;4.00;;;;;;;32.67;47.78;100571.41;5042272;28;20318;-64
2022/07/17 11:10:17;;;;;;;12.73;3.88;;;;;;;32.59;47.99;100572.72;5051616;28;20078;-64
2022/07/17 11:12:43;;;;;;;9.45;4.22;;;;;;;32.41;47.62;100570.09;5039499;28;20033;-63
2022/07/17 11:15:10;;;;;;;14.10;4.70;;;;;;;32.34;48.42;100589.88;5046331;28;20040;-63
2022/07/17 11:17:37;;;;;;;14.13;4.57;;;;;;;32.29;48.60;100601.56;5046244;28;20037;-63
2022/07/17 11:20:04;;;;;;;14.52;4.90;;;;;;;32.23;48.35;100597.56;5040013;28;20108;-64
2022/07/17 11:22:30;;;;;;;16.83;5.22;;;;;;;32.17;48.06;100622.53;5050556;28;20430;-63